Durham, NC (27701)

8:37 AM EDT on August 20, 2017 (GMT -0400)
South Durham | | Change Station

Elev 404 ft 35.99 °N, 78.90 °W | Updated 2 minutes ago

Clear
Clear
76.9 °F
Feels Like 78 °F
N
0.0
Wind Variable Wind from SW

Today
High -- | Low -- °F
--% Chance of Precip.
Yesterday
High -- | Low -- °F
Precip. -- in
Pressure 30.07 in
Visibility 10.0 miles
Clouds Few 25000 ft
Heat Index 78 °F
Dew Point 73 °F
Humidity 88%
Rainfall 0.00 in
Snow Depth Not available.
6:38 AM 7:58 PM
Waning Crescent, 2% visible
METAR KRDU 201151Z 00000KT 10SM FEW250 24/22 A3009 RMK AO2 SLP182 T02390222 10239 20217 53018
Pressure 30.07 in
Visibility 10.0 miles
Clouds Few 25000 ft
Heat Index 78 °F
Dew Point 73 °F
Humidity 88%
Rainfall 0.00 in
Snow Depth Not available.
6:38 AM 7:58 PM
Waning Crescent, 2% visible
METAR KRDU 201151Z 00000KT 10SM FEW250 24/22 A3009 RMK AO2 SLP182 T02390222 10239 20217 53018

Get Severe Weather Alerts

Thanks for signing up!

Be on the lookout for a verification email in your inbox.

You'll start receiving the daily forecast at 6 AM.

×

10-Day Weather Forecast

Almanac

Astronomy

Aug. 20, 2017 Rise Set
Actual Time
Civil Twilight
Nautical Twilight
Astronomical Twilight
Moon
Length of Visible Light
Length of Day
Tomorrow will be .
, % of the Moon is Illuminated

Today's Extremes

State Highs State Lows

Community

WunderPhotos

Category 6

Welcome to Category 6. This is the collective home for Weather Underground's featured writeups by Dr. Jeff Masters (right), Bob Henson (left), Chris Burt, and other regular contributors.

Nearby

Air Quality

  Air Quality AQ Index Pollutant
Not available.

Snow Depth

Station Depth Elevation

Earthquake Activity

City Distance Mag. Time & Date
Minimum magnitude displayed is 2.5.

Coastal Water Temperatures

Place Temperature

Stations

Nearby Weather Stations

Station Location Temp. Windchill Dew Point Humidity Wind Precip. Elev Updated Type
                   

Watches & Warnings

There are currently no watches in effect.